Latest Weather Observations for Bickley

IDW60801

Issued at 4:05 am WST Monday 22 September 2014 (issued every 30 minutes, with the page automatically refreshed every 10 minutes)

About weather observations | Map of weather stations | Latest weather observations for WA | Other Formats
Station Details ID: 009240 Name: BICKLEY Lat: -32.01 Lon: 116.14 Height: 384.0 m
Data from the previous 72 hours. | See also: Recent months at Bickley
Date/Time
WST
Temp
°C
App
Temp
°C
Dew
Point
Rel
Hum
%
Delta-T
°C
Wind Press
QNH
hPa
Press
MSL
hPa
Rain
since 9 am
mm
Dir
 
Spd
km/h
Gust
km/h
Spd
kts
Gust
kts
22/04:00am 7.5 - 6.8 95 0.3 - - - - - - - 32.2
22/03:30am 7.7 - 7.1 96 0.3 - - - - - - - 32.2
22/03:00am 7.6 - 7.2 97 0.2 - - - - - - - 32.2
22/02:30am 7.6 - 7.3 98 0.1 - - - - - - - 32.2
22/02:00am 7.8 - 7.7 99 0.0 - - - - - - - 32.2
22/01:30am 8.1 - 7.8 98 0.1 - - - - - - - 32.2
22/01:00am 8.3 - 8.0 98 0.1 - - - - - - - 32.2
22/12:30am 8.5 - 8.4 99 0.0 - - - - - - - 32.2
22/12:00am 8.7 - 8.6 99 0.0 - - - - - - - 32.2
 
Date/Time
WST
Temp
°C
App
Temp
°C
Dew
Point
Rel
Hum
%
Delta-T
°C
Wind Press
QNH
hPa
Press
MSL
hPa
Rain
since 9 am
mm
Dir
 
Spd
km/h
Gust
km/h
Spd
kts
Gust
kts
21/11:30pm 8.9 - 8.8 99 0.0 - - - - - - - 32.2
21/11:00pm 9.0 - 8.9 99 0.0 - - - - - - - 32.2
21/10:30pm 9.1 - 9.0 99 0.1 - - - - - - - 31.6
21/10:00pm 9.2 - 9.1 99 0.1 - - - - - - - 31.2
21/09:30pm 9.1 - 8.5 96 0.3 - - - - - - - 31.2
21/09:00pm 9.1 - 8.6 97 0.2 - - - - - - - 31.2
21/08:30pm 9.6 - 9.5 99 0.1 - - - - - - - 30.6
21/08:00pm 9.7 - 9.6 99 0.1 - - - - - - - 30.0
21/07:30pm 9.8 - 9.7 99 0.1 - - - - - - - 29.8
21/07:00pm 10.3 - 10.1 99 0.1 - - - - - - - 29.0
21/06:30pm 11.0 - 10.8 99 0.1 - - - - - - - 25.6
21/06:00pm 11.2 - 11.0 99 0.1 - - - - - - - 21.0
21/05:30pm 11.3 - 11.1 99 0.1 - - - - - - - 21.0
21/05:00pm 11.3 - 11.1 99 0.1 - - - - - - - 21.0
21/04:30pm 11.4 - 11.2 99 0.1 - - - - - - - 21.0
21/04:00pm 11.3 - 11.1 99 0.1 - - - - - - - 21.0
21/03:30pm 11.2 - 11.0 99 0.1 - - - - - - - 21.0
21/03:00pm 11.1 - 10.9 99 0.1 - - - - - - - 20.6
21/02:30pm 10.8 - 10.6 99 0.1 - - - - - - - 20.0
21/02:00pm 10.7 - 10.5 99 0.1 - - - - - - - 18.4
21/01:30pm 11.4 - 11.2 99 0.1 - - - - - - - 15.4
21/01:00pm 11.9 - 11.7 99 0.1 - - - - - - - 13.4
21/12:30pm 11.4 - 11.2 99 0.1 - - - - - - - 11.4
21/12:00pm 12.0 - 11.8 99 0.1 - - - - - - - 6.8
21/11:30am 12.3 - 12.1 99 0.1 - - - - - - - 3.0
21/11:00am 13.1 - 12.9 99 0.1 - - - - - - - 1.4
21/10:30am 15.3 - 14.0 92 0.7 - - - - - - - 0.0
21/10:00am 19.0 - 12.0 64 3.9 - - - - - - - 0.0
21/09:30am 19.0 - 10.8 59 4.5 - - - - - - - 0.0
21/09:00am 18.9 - 10.5 58 4.6 - - - - - - - 0.0
21/08:30am 18.6 - 10.9 61 4.2 - - - - - - - 0.0
21/08:00am 18.5 - 10.3 59 4.5 - - - - - - - 0.0
21/07:30am 17.2 - 9.9 62 3.9 - - - - - - - 0.0
21/07:00am 16.2 - 10.3 68 3.2 - - - - - - - 0.0
21/06:30am 15.5 - 10.3 71 2.8 - - - - - - - 0.0
21/06:00am 14.9 - 10.5 75 2.4 - - - - - - - 0.0
21/05:30am 15.3 - 10.9 75 2.4 - - - - - - - 0.0
21/05:00am 15.9 - 11.3 74 2.5 - - - - - - - 0.0
21/04:30am 15.9 - 11.3 74 2.5 - - - - - - - 0.0
21/04:00am 16.6 - 11.5 72 2.8 - - - - - - - 0.0
21/03:30am 17.3 - 11.6 69 3.2 - - - - - - - 0.0
21/03:00am 17.5 - 10.4 63 3.9 - - - - - - - 0.0
21/02:30am 17.3 - 10.4 64 3.7 - - - - - - - 0.0
21/02:00am 16.3 - 11.0 71 2.9 - - - - - - - 0.0
21/01:30am 15.8 - 11.8 77 2.2 - - - - - - - 0.0
21/01:00am 15.4 - 13.4 88 1.1 - - - - - - - 0.0
21/12:30am 15.5 - 14.9 96 0.4 - - - - - - - 0.0
21/12:00am 15.8 - 15.0 95 0.5 - - - - - - - 0.0
 
Date/Time
WST
Temp
°C
App
Temp
°C
Dew
Point
Rel
Hum
%
Delta-T
°C
Wind Press
QNH
hPa
Press
MSL
hPa
Rain
since 9 am
mm
Dir
 
Spd
km/h
Gust
km/h
Spd
kts
Gust
kts
20/11:30pm 15.8 - 15.3 97 0.3 - - - - - - - 0.0
20/11:00pm 16.3 - 15.7 96 0.4 - - - - - - - 0.0
20/10:30pm 16.6 - 15.1 91 0.9 - - - - - - - 0.0
20/10:00pm 16.7 - 14.7 88 1.2 - - - - - - - 0.0
20/09:30pm 17.0 - 14.5 85 1.5 - - - - - - - 0.0
20/09:00pm 17.0 - 13.5 80 2.0 - - - - - - - 0.0
20/08:30pm 17.5 - 13.0 75 2.6 - - - - - - - 0.0
20/08:00pm 17.8 - 12.5 71 3.0 - - - - - - - 0.0
20/07:30pm 18.0 - 12.7 71 3.0 - - - - - - - 0.0
20/07:00pm 18.5 - 12.5 68 3.4 - - - - - - - 0.0
20/06:30pm 18.8 - 12.5 67 3.6 - - - - - - - 0.0
20/06:00pm 19.8 - 11.6 59 4.6 - - - - - - - 0.0
20/05:30pm 21.5 - 7.7 41 7.3 - - - - - - - 0.0
20/05:00pm 23.4 - 8.3 38 8.2 - - - - - - - 0.0
20/04:30pm 23.9 - 10.6 43 7.5 - - - - - - - 0.0
20/04:00pm 24.8 - 13.0 47 7.0 - - - - - - - 0.0
20/03:58pm 25.2 - 13.4 48 7.0 - - - - - - - 0.0
20/03:30pm 30.2 - 9.1 27 12.0 - - - - - - - 0.0
20/03:00pm 30.2 - 9.1 27 12.0 - - - - - - - 0.0
20/02:30pm 29.7 - 9.3 28 11.6 - - - - - - - 0.0
20/02:00pm 29.6 - 9.2 28 11.6 - - - - - - - 0.0
20/01:30pm 29.4 - 11.5 33 10.5 - - - - - - - 0.0
20/01:00pm 28.9 - 11.9 35 10.0 - - - - - - - 0.0
20/12:30pm 27.3 - 12.1 39 8.9 - - - - - - - 0.0
20/12:00pm 26.2 - 12.3 42 8.2 - - - - - - - 0.0
20/11:30am 25.0 - 11.9 44 7.6 - - - - - - - 0.0
20/11:00am 24.0 - 11.3 45 7.3 - - - - - - - 0.0
20/10:30am 22.8 - 10.9 47 6.7 - - - - - - - 0.0
20/10:00am 21.9 - 11.0 50 6.1 - - - - - - - 0.0
20/09:30am 20.4 - 11.1 55 5.2 - - - - - - - 0.0
20/09:00am 18.6 - 10.2 58 4.6 - - - - - - - 0.0
20/08:30am 17.0 - 10.1 64 3.7 - - - - - - - 0.0
20/08:00am 14.9 - 9.7 71 2.7 - - - - - - - 0.0
20/07:30am 13.6 - 9.1 74 2.3 - - - - - - - 0.0
20/07:00am 12.2 - 8.9 80 1.7 - - - - - - - 0.0
20/06:30am 11.5 - 8.5 82 1.5 - - - - - - - 0.0
20/06:00am 11.3 - 8.9 85 1.2 - - - - - - - 0.0
20/05:30am 11.4 - 9.1 86 1.2 - - - - - - - 0.0
20/05:00am 11.4 - 9.7 89 0.9 - - - - - - - 0.0
20/04:30am 11.7 - 10.1 90 0.8 - - - - - - - 0.0
20/04:00am 11.7 - 10.4 92 0.7 - - - - - - - 0.0
20/03:30am 12.1 - 10.5 90 0.8 - - - - - - - 0.0
20/03:00am 12.3 - 10.5 89 1.0 - - - - - - - 0.0
20/02:30am 12.4 - 10.6 89 1.0 - - - - - - - 0.0
20/02:00am 12.7 - 10.8 88 1.0 - - - - - - - 0.0
20/01:30am 13.1 - 10.8 86 1.2 - - - - - - - 0.0
20/01:00am 13.5 - 10.9 84 1.4 - - - - - - - 0.0
20/12:30am 13.7 - 10.7 82 1.6 - - - - - - - 0.0
20/12:00am 13.8 - 10.4 80 1.8 - - - - - - - 0.0
 
Date/Time
WST
Temp
°C
App
Temp
°C
Dew
Point
Rel
Hum
%
Delta-T
°C
Wind Press
QNH
hPa
Press
MSL
hPa
Rain
since 9 am
mm
Dir
 
Spd
km/h
Gust
km/h
Spd
kts
Gust
kts
19/11:30pm 14.3 - 10.3 77 2.1 - - - - - - - 0.0
19/11:00pm 14.5 - 10.3 76 2.2 - - - - - - - 0.0
19/10:30pm 14.8 - 10.2 74 2.5 - - - - - - - 0.0
19/10:00pm 14.8 - 10.4 75 2.4 - - - - - - - 0.0
19/09:30pm 14.9 - 11.1 78 2.1 - - - - - - - 0.0
19/09:00pm 15.5 - 12.3 81 1.8 - - - - - - - 0.0
19/08:30pm 16.0 - 13.8 87 1.3 - - - - - - - 0.0
19/08:00pm 16.0 - 14.2 89 1.0 - - - - - - - 0.0
19/07:30pm 16.6 - 14.2 86 1.4 - - - - - - - 0.0
19/07:00pm 17.2 - 14.3 83 1.7 - - - - - - - 0.0
19/06:30pm 18.5 - 13.8 74 2.7 - - - - - - - 0.0
19/06:00pm 19.3 - 13.5 69 3.4 - - - - - - - 0.0
19/05:30pm 20.4 - 12.6 61 4.5 - - - - - - - 0.0
19/05:00pm 22.2 - 11.9 52 5.9 - - - - - - - 0.0
19/04:30pm 22.9 - 10.3 45 7.0 - - - - - - - 0.0
19/04:00pm 23.1 - 10.9 46 6.9 - - - - - - - 0.0
19/03:30pm 23.0 - 10.8 46 6.9 - - - - - - - 0.0
19/03:00pm 23.2 - 11.9 49 6.5 - - - - - - - 0.0
19/02:30pm 22.4 - 11.8 51 6.1 - - - - - - - 0.0
19/02:00pm 21.3 - 10.8 51 5.9 - - - - - - - 0.0
19/01:30pm 20.9 - 11.3 54 5.4 - - - - - - - 0.0
19/01:00pm 21.7 - 11.7 53 5.7 - - - - - - - 0.0
19/12:30pm 20.1 - 11.8 59 4.7 - - - - - - - 0.0
19/12:00pm 20.5 - 11.7 57 5.0 - - - - - - - 0.0
19/11:30am 20.0 - 12.5 62 4.3 - - - - - - - 0.0
19/11:00am 19.8 - 13.0 65 3.9 - - - - - - - 0.0
19/10:30am 18.8 - 12.8 68 3.4 - - - - - - - 0.0
19/10:00am 18.3 - 13.0 71 3.0 - - - - - - - 0.0
19/09:30am 17.3 - 13.0 76 2.4 - - - - - - - 0.0
19/09:00am 16.1 - 13.0 82 1.8 - - - - - - - 0.0
19/08:30am 14.9 - 12.9 88 1.1 - - - - - - - 0.0
19/08:00am 14.3 - 13.5 95 0.5 - - - - - - - 0.0
19/07:30am 13.0 - 12.8 99 0.1 - - - - - - - 0.0
19/07:00am 12.0 - 11.8 99 0.1 - - - - - - - 0.0
19/06:30am 11.6 - 11.4 99 0.1 - - - - - - - 0.0
19/06:00am 11.3 - 11.1 99 0.1 - - - - - - - 0.0
19/05:30am 11.3 - 11.1 99 0.1 - - - - - - - 0.0
19/05:00am 11.4 - 11.2 99 0.1 - - - - - - - 0.0
19/04:30am 11.5 - 11.3 99 0.1 - - - - - - - 0.0

Other Formats:

Comma delimited format used in spreadsheet applications
http://www.bom.gov.au/fwo/IDW60801/IDW60801.95610.axf

JavaScript Object Notation format (JSON) in row-major order
http://www.bom.gov.au/fwo/IDW60801/IDW60801.95610.json